sensor_id;sensor_type;location;lat;lon;timestamp;pressure;altitude;pressure_sealevel;temperature;humidity
33496;BME280;19836;55.812;37.560;2023-02-23T00:01:40;99566.16;;;-10.89;59.46
33496;BME280;19836;55.812;37.560;2023-02-23T00:04:07;99572.28;;;-10.87;59.50
33496;BME280;19836;55.812;37.560;2023-02-23T00:06:34;99567.94;;;-10.88;59.78
33496;BME280;19836;55.812;37.560;2023-02-23T00:09:01;99574.88;;;-10.87;59.69
33496;BME280;19836;55.812;37.560;2023-02-23T00:11:31;99580.03;;;-10.87;59.79
33496;BME280;19836;55.812;37.560;2023-02-23T00:13:58;99583.38;;;-10.89;59.95
33496;BME280;19836;55.812;37.560;2023-02-23T00:16:26;99582.41;;;-10.91;59.37
33496;BME280;19836;55.812;37.560;2023-02-23T00:19:24;99584.09;;;-10.92;59.84
33496;BME280;19836;55.812;37.560;2023-02-23T00:22:15;99597.97;;;-10.90;59.56
33496;BME280;19836;55.812;37.560;2023-02-23T00:25:08;99603.03;;;-10.93;59.60
33496;BME280;19836;55.812;37.560;2023-02-23T00:27:38;99599.53;;;-10.93;59.67
33496;BME280;19836;55.812;37.560;2023-02-23T00:30:14;99603.84;;;-10.94;59.57
33496;BME280;19836;55.812;37.560;2023-02-23T00:32:40;99601.25;;;-10.94;59.78
33496;BME280;19836;55.812;37.560;2023-02-23T00:35:07;99598.50;;;-10.97;59.81
33496;BME280;19836;55.812;37.560;2023-02-23T00:37:44;99603.66;;;-10.97;59.95
33496;BME280;19836;55.812;37.560;2023-02-23T00:40:11;99601.09;;;-10.97;59.60
33496;BME280;19836;55.812;37.560;2023-02-23T00:42:44;99600.25;;;-10.96;59.87
33496;BME280;19836;55.812;37.560;2023-02-23T00:45:12;99609.50;;;-11.01;59.91
33496;BME280;19836;55.812;37.560;2023-02-23T00:47:43;99615.16;;;-11.08;59.53
33496;BME280;19836;55.812;37.560;2023-02-23T00:50:15;99611.78;;;-11.07;59.85
33496;BME280;19836;55.812;37.560;2023-02-23T00:52:42;99610.81;;;-11.09;60.16
33496;BME280;19836;55.812;37.560;2023-02-23T00:55:13;99608.28;;;-11.07;59.96
33496;BME280;19836;55.812;37.560;2023-02-23T00:57:40;99623.16;;;-11.03;59.79
33496;BME280;19836;55.812;37.560;2023-02-23T01:00:10;99620.56;;;-11.03;60.08
33496;BME280;19836;55.812;37.560;2023-02-23T01:02:47;99618.72;;;-11.06;60.02
33496;BME280;19836;55.812;37.560;2023-02-23T01:05:13;99620.66;;;-11.02;59.97
33496;BME280;19836;55.812;37.560;2023-02-23T01:07:40;99623.16;;;-11.03;60.12
33496;BME280;19836;55.812;37.560;2023-02-23T01:10:07;99622.84;;;-11.09;59.92
33496;BME280;19836;55.812;37.560;2023-02-23T01:12:50;99621.88;;;-11.11;60.33
33496;BME280;19836;55.812;37.560;2023-02-23T01:15:18;99629.47;;;-11.14;60.12
33496;BME280;19836;55.812;37.560;2023-02-23T01:17:45;99630.38;;;-11.14;60.23
33496;BME280;19836;55.812;37.560;2023-02-23T01:20:13;99632.13;;;-11.13;60.42
33496;BME280;19836;55.812;37.560;2023-02-23T01:22:44;99625.97;;;-11.15;60.31
33496;BME280;19836;55.812;37.560;2023-02-23T01:25:12;99641.50;;;-11.15;60.62
33496;BME280;19836;55.812;37.560;2023-02-23T01:27:40;99645.78;;;-11.15;60.07
33496;BME280;19836;55.812;37.560;2023-02-23T01:30:11;99642.47;;;-11.13;60.30
33496;BME280;19836;55.812;37.560;2023-02-23T01:32:38;99639.09;;;-11.12;60.43
33496;BME280;19836;55.812;37.560;2023-02-23T01:35:08;99638.78;;;-11.18;60.05
33496;BME280;19836;55.812;37.560;2023-02-23T01:37:38;99640.31;;;-11.21;60.58
33496;BME280;19836;55.812;37.560;2023-02-23T01:40:11;99633.34;;;-11.22;60.43
33496;BME280;19836;55.812;37.560;2023-02-23T01:42:44;99632.38;;;-11.24;60.67
33496;BME280;19836;55.812;37.560;2023-02-23T01:45:22;99636.66;;;-11.25;60.54
33496;BME280;19836;55.812;37.560;2023-02-23T01:47:51;99625.44;;;-11.25;60.67
33496;BME280;19836;55.812;37.560;2023-02-23T01:50:21;99636.44;;;-11.29;60.40
33496;BME280;19836;55.812;37.560;2023-02-23T01:52:49;99640.69;;;-11.30;60.46
33496;BME280;19836;55.812;37.560;2023-02-23T01:55:19;99640.63;;;-11.31;60.42
33496;BME280;19836;55.812;37.560;2023-02-23T01:57:53;99640.88;;;-11.27;60.89
33496;BME280;19836;55.812;37.560;2023-02-23T02:00:22;99643.75;;;-11.21;60.49
33496;BME280;19836;55.812;37.560;2023-02-23T02:02:51;99640.53;;;-11.17;60.30
33496;BME280;19836;55.812;37.560;2023-02-23T02:05:19;99650.88;;;-11.17;60.50
33496;BME280;19836;55.812;37.560;2023-02-23T02:07:55;99652.56;;;-11.17;60.54
33496;BME280;19836;55.812;37.560;2023-02-23T02:10:26;99649.09;;;-11.18;60.59
33496;BME280;19836;55.812;37.560;2023-02-23T02:13:06;99651.78;;;-11.16;60.43
33496;BME280;19836;55.812;37.560;2023-02-23T02:15:36;99655.16;;;-11.17;60.69
33496;BME280;19836;55.812;37.560;2023-02-23T02:18:38;99656.69;;;-11.21;60.73
33496;BME280;19836;55.812;37.560;2023-02-23T02:38:22;99681.09;;;-11.32;60.45
33496;BME280;19836;55.812;37.560;2023-02-23T02:41:00;99677.47;;;-11.35;60.77
33496;BME280;19836;55.812;37.560;2023-02-23T02:46:21;99684.31;;;-11.36;60.59
33496;BME280;19836;55.812;37.560;2023-02-23T02:54:13;99680.19;;;-11.32;60.79
33496;BME280;19836;55.812;37.560;2023-02-23T02:56:44;99686.25;;;-11.32;60.79
33496;BME280;19836;55.812;37.560;2023-02-23T02:59:16;99681.91;;;-11.33;60.65
33496;BME280;19836;55.812;37.560;2023-02-23T03:02:02;99689.66;;;-11.33;60.84
33496;BME280;19836;55.812;37.560;2023-02-23T03:04:47;99695.63;;;-11.34;60.89
33496;BME280;19836;55.812;37.560;2023-02-23T03:07:39;99686.16;;;-11.33;60.82
33496;BME280;19836;55.812;37.560;2023-02-23T03:10:46;99687.06;;;-11.33;61.03
33496;BME280;19836;55.812;37.560;2023-02-23T03:19:35;99684.53;;;-11.47;61.21
33496;BME280;19836;55.812;37.560;2023-02-23T03:22:27;99685.13;;;-11.53;60.81
33496;BME280;19836;55.812;37.560;2023-02-23T03:25:17;99693.69;;;-11.54;61.11
33496;BME280;19836;55.812;37.560;2023-02-23T03:28:19;99694.25;;;-11.59;61.25
33496;BME280;19836;55.812;37.560;2023-02-23T03:34:32;99696.88;;;-11.58;61.02
33496;BME280;19836;55.812;37.560;2023-02-23T03:37:30;99698.38;;;-11.63;61.34
33496;BME280;19836;55.812;37.560;2023-02-23T03:40:20;99694.47;;;-11.71;61.47
33496;BME280;19836;55.812;37.560;2023-02-23T03:43:11;99691.06;;;-11.70;61.40
33496;BME280;19836;55.812;37.560;2023-02-23T03:45:59;99709.16;;;-11.70;61.65
33496;BME280;19836;55.812;37.560;2023-02-23T03:48:45;99706.56;;;-11.70;61.24
33496;BME280;19836;55.812;37.560;2023-02-23T03:51:34;99709.00;;;-11.73;61.34
33496;BME280;19836;55.812;37.560;2023-02-23T03:54:29;99712.53;;;-11.71;61.78
33496;BME280;19836;55.812;37.560;2023-02-23T03:57:18;99713.25;;;-11.73;61.61
33496;BME280;19836;55.812;37.560;2023-02-23T04:00:08;99716.41;;;-11.79;61.37
33496;BME280;19836;55.812;37.560;2023-02-23T04:02:55;99717.13;;;-11.81;61.76
33496;BME280;19836;55.812;37.560;2023-02-23T04:05:42;99711.06;;;-11.82;61.29
33496;BME280;19836;55.812;37.560;2023-02-23T04:08:33;99708.38;;;-11.83;61.62
33496;BME280;19836;55.812;37.560;2023-02-23T04:11:26;99713.41;;;-11.86;61.76
33496;BME280;19836;55.812;37.560;2023-02-23T04:14:23;99720.44;;;-11.84;61.65
33496;BME280;19836;55.812;37.560;2023-02-23T04:16:50;99718.63;;;-11.85;61.42
33496;BME280;19836;55.812;37.560;2023-02-23T04:19:17;99721.06;;;-11.88;61.93
33496;BME280;19836;55.812;37.560;2023-02-23T04:21:43;99730.25;;;-11.93;61.63
33496;BME280;19836;55.812;37.560;2023-02-23T04:24:09;99732.97;;;-11.90;61.94
33496;BME280;19836;55.812;37.560;2023-02-23T04:26:35;99731.19;;;-11.91;61.67
33496;BME280;19836;55.812;37.560;2023-02-23T04:32:56;99717.31;;;-11.93;62.10
33496;BME280;19836;55.812;37.560;2023-02-23T04:35:24;99735.13;;;-11.97;62.06
33496;BME280;19836;55.812;37.560;2023-02-23T04:37:52;99739.50;;;-11.96;62.28
33496;BME280;19836;55.812;37.560;2023-02-23T04:40:18;99742.63;;;-12.02;61.78
33496;BME280;19836;55.812;37.560;2023-02-23T04:42:44;99732.91;;;-12.06;62.26
33496;BME280;19836;55.812;37.560;2023-02-23T04:45:10;99736.13;;;-12.10;62.10
33496;BME280;19836;55.812;37.560;2023-02-23T04:47:36;99738.63;;;-12.11;61.92
33496;BME280;19836;55.812;37.560;2023-02-23T04:50:03;99736.94;;;-12.11;62.15
33496;BME280;19836;55.812;37.560;2023-02-23T04:52:29;99736.41;;;-12.05;62.00
33496;BME280;19836;55.812;37.560;2023-02-23T04:54:56;99734.06;;;-12.01;62.12
33496;BME280;19836;55.812;37.560;2023-02-23T04:57:22;99745.19;;;-12.02;62.15
33496;BME280;19836;55.812;37.560;2023-02-23T04:59:48;99745.19;;;-12.02;62.24
33496;BME280;19836;55.812;37.560;2023-02-23T05:02:14;99747.78;;;-12.02;62.52
33496;BME280;19836;55.812;37.560;2023-02-23T05:07:31;99748.13;;;-11.96;62.35
33496;BME280;19836;55.812;37.560;2023-02-23T05:09:57;99754.28;;;-11.94;62.10
33496;BME280;19836;55.812;37.560;2023-02-23T05:12:23;99750.09;;;-11.92;62.31
33496;BME280;19836;55.812;37.560;2023-02-23T05:15:37;99751.69;;;-11.94;62.05
33496;BME280;19836;55.812;37.560;2023-02-23T05:18:04;99737.28;;;-11.90;62.23
33496;BME280;19836;55.812;37.560;2023-02-23T05:20:30;99745.25;;;-11.86;62.46
33496;BME280;19836;55.812;37.560;2023-02-23T05:22:57;99754.16;;;-11.81;62.02
33496;BME280;19836;55.812;37.560;2023-02-23T05:34:10;99763.06;;;-11.76;62.33
33496;BME280;19836;55.812;37.560;2023-02-23T05:36:38;99757.03;;;-11.76;61.77
33496;BME280;19836;55.812;37.560;2023-02-23T05:39:33;99760.03;;;-11.69;62.17
33496;BME280;19836;55.812;37.560;2023-02-23T05:42:36;99758.22;;;-11.70;61.84
33496;BME280;19836;55.812;37.560;2023-02-23T05:45:04;99761.72;;;-11.69;62.00
33496;BME280;19836;55.812;37.560;2023-02-23T05:47:31;99762.34;;;-11.73;62.11
33496;BME280;19836;55.812;37.560;2023-02-23T05:50:02;99766.78;;;-11.71;61.93
33496;BME280;19836;55.812;37.560;2023-02-23T05:52:29;99772.28;;;-11.65;61.99
33496;BME280;19836;55.812;37.560;2023-02-23T06:02:38;99763.75;;;-11.48;61.98
33496;BME280;19836;55.812;37.560;2023-02-23T06:09:04;99778.44;;;-11.47;61.73
33496;BME280;19836;55.812;37.560;2023-02-23T06:18:21;99779.09;;;-11.51;61.74
33496;BME280;19836;55.812;37.560;2023-02-23T06:20:47;99773.03;;;-11.51;62.03
33496;BME280;19836;55.812;37.560;2023-02-23T06:23:13;99783.09;;;-11.56;61.37
33496;BME280;19836;55.812;37.560;2023-02-23T06:25:46;99776.50;;;-11.51;61.82
33496;BME280;19836;55.812;37.560;2023-02-23T06:40:38;99790.25;;;-11.21;61.46
33496;BME280;19836;55.812;37.560;2023-02-23T06:47:50;99786.31;;;-10.99;61.75
33496;BME280;19836;55.812;37.560;2023-02-23T06:50:18;99788.22;;;-10.95;61.48
33496;BME280;19836;55.812;37.560;2023-02-23T06:52:45;99793.66;;;-10.90;61.44
33496;BME280;19836;55.812;37.560;2023-02-23T06:58:43;99795.72;;;-10.69;61.44
33496;BME280;19836;55.812;37.560;2023-02-23T07:01:09;99798.75;;;-10.60;61.29
33496;BME280;19836;55.812;37.560;2023-02-23T07:03:37;99800.88;;;-10.53;61.41
33496;BME280;19836;55.812;37.560;2023-02-23T07:06:04;99800.47;;;-10.44;61.39
33496;BME280;19836;55.812;37.560;2023-02-23T07:08:34;99795.91;;;-10.32;61.52
33496;BME280;19836;55.812;37.560;2023-02-23T07:11:06;99800.09;;;-10.18;61.20
33496;BME280;19836;55.812;37.560;2023-02-23T07:13:32;99802.59;;;-10.02;61.79
33496;BME280;19836;55.812;37.560;2023-02-23T07:15:58;99809.16;;;-9.93;61.22
33496;BME280;19836;55.812;37.560;2023-02-23T07:18:24;99801.81;;;-9.84;61.55
33496;BME280;19836;55.812;37.560;2023-02-23T07:20:50;99799.03;;;-9.71;61.38
33496;BME280;19836;55.812;37.560;2023-02-23T07:24:14;99812.28;;;-9.47;60.71
33496;BME280;19836;55.812;37.560;2023-02-23T07:50:58;99820.09;;;-8.57;60.20
33496;BME280;19836;55.812;37.560;2023-02-23T07:53:27;99817.09;;;-8.47;60.31
33496;BME280;19836;55.812;37.560;2023-02-23T08:03:33;99804.53;;;-8.17;59.93
33496;BME280;19836;55.812;37.560;2023-02-23T08:06:03;99809.13;;;-8.12;59.70
33496;BME280;19836;55.812;37.560;2023-02-23T08:14:39;99793.75;;;-7.87;59.35
33496;BME280;19836;55.812;37.560;2023-02-23T08:17:07;99798.31;;;-7.81;59.73
33496;BME280;19836;55.812;37.560;2023-02-23T08:27:03;99806.00;;;-7.64;59.09
33496;BME280;19836;55.812;37.560;2023-02-23T08:29:30;99806.00;;;-7.64;58.59
33496;BME280;19836;55.812;37.560;2023-02-23T08:31:57;99798.56;;;-7.55;58.31
33496;BME280;19836;55.812;37.560;2023-02-23T08:34:28;99804.47;;;-7.38;58.66
33496;BME280;19836;55.812;37.560;2023-02-23T08:36:59;99803.81;;;-7.33;58.67
33496;BME280;19836;55.812;37.560;2023-02-23T08:43:34;99808.00;;;-7.16;58.30
33496;BME280;19836;55.812;37.560;2023-02-23T08:47:24;99817.13;;;-7.05;58.06
33496;BME280;19836;55.812;37.560;2023-02-23T08:51:13;99817.47;;;-6.96;58.00
33496;BME280;19836;55.812;37.560;2023-02-23T08:53:57;99820.44;;;-6.87;57.56
33496;BME280;19836;55.812;37.560;2023-02-23T08:56:23;99817.06;;;-6.84;57.44
33496;BME280;19836;55.812;37.560;2023-02-23T09:08:42;99804.88;;;-6.40;57.37
33496;BME280;19836;55.812;37.560;2023-02-23T09:11:39;99805.38;;;-6.26;57.22
33496;BME280;19836;55.812;37.560;2023-02-23T09:14:39;99802.63;;;-6.31;56.68
33496;BME280;19836;55.812;37.560;2023-02-23T09:17:05;99803.84;;;-6.21;56.80
33496;BME280;19836;55.812;37.560;2023-02-23T09:20:24;99803.28;;;-6.13;56.61
33496;BME280;19836;55.812;37.560;2023-02-23T09:37:06;99778.13;;;-2.91;52.79
33496;BME280;19836;55.812;37.560;2023-02-23T11:22:29;99701.66;;;5.58;25.61
33496;BME280;19836;55.812;37.560;2023-02-23T11:25:14;99700.38;;;5.92;26.06
33496;BME280;19836;55.812;37.560;2023-02-23T11:28:23;99689.53;;;7.22;26.09
33496;BME280;19836;55.812;37.560;2023-02-23T12:34:27;99667.06;;;10.55;24.42
33496;BME280;19836;55.812;37.560;2023-02-23T14:47:20;99718.06;;;-3.87;39.61
33496;BME280;19836;55.812;37.560;2023-02-23T15:04:55;99708.34;;;-4.25;41.49
33496;BME280;19836;55.812;37.560;2023-02-23T15:19:24;99721.41;;;-4.56;43.31
33496;BME280;19836;55.812;37.560;2023-02-23T15:21:55;99722.13;;;-4.62;43.21
33496;BME280;19836;55.812;37.560;2023-02-23T15:24:26;99725.31;;;-4.72;43.80
33496;BME280;19836;55.812;37.560;2023-02-23T15:26:57;99733.88;;;-4.76;44.14
33496;BME280;19836;55.812;37.560;2023-02-23T16:34:32;99686.50;;;-5.17;46.27
33496;BME280;19836;55.812;37.560;2023-02-23T16:37:31;99673.34;;;-5.20;46.54
33496;BME280;19836;55.812;37.560;2023-02-23T16:44:41;99678.31;;;-5.28;46.93
33496;BME280;19836;55.812;37.560;2023-02-23T17:31:51;99671.38;;;-5.55;48.27
33496;BME280;19836;55.812;37.560;2023-02-23T17:50:20;99653.72;;;-5.63;49.76
33496;BME280;19836;55.812;37.560;2023-02-23T18:28:33;99633.91;;;-5.85;50.69
33496;BME280;19836;55.812;37.560;2023-02-23T18:31:00;99636.47;;;-5.86;51.02
33496;BME280;19836;55.812;37.560;2023-02-23T18:33:30;99627.59;;;-5.91;51.70
33496;BME280;19836;55.812;37.560;2023-02-23T19:08:50;99605.53;;;-6.02;52.29
33496;BME280;19836;55.812;37.560;2023-02-23T19:11:25;99614.00;;;-6.08;52.23
33496;BME280;19836;55.812;37.560;2023-02-23T19:13:55;99612.25;;;-6.09;52.72
33496;BME280;19836;55.812;37.560;2023-02-23T19:16:22;99609.31;;;-6.19;52.31
33496;BME280;19836;55.812;37.560;2023-02-23T19:18:50;99599.66;;;-6.22;52.70
33496;BME280;19836;55.812;37.560;2023-02-23T19:21:19;99603.09;;;-6.23;52.75
33496;BME280;19836;55.812;37.560;2023-02-23T19:23:49;99605.63;;;-6.26;53.05
33496;BME280;19836;55.812;37.560;2023-02-23T19:26:18;99603.84;;;-6.27;52.96
33496;BME280;19836;55.812;37.560;2023-02-23T19:29:02;99593.56;;;-6.22;53.07
33496;BME280;19836;55.812;37.560;2023-02-23T19:31:31;99596.22;;;-6.21;52.84
33496;BME280;19836;55.812;37.560;2023-02-23T19:41:18;99587.56;;;-6.20;53.07
33496;BME280;19836;55.812;37.560;2023-02-23T19:43:45;99586.66;;;-6.20;53.09
33496;BME280;19836;55.812;37.560;2023-02-23T19:46:18;99588.47;;;-6.18;53.29
33496;BME280;19836;55.812;37.560;2023-02-23T19:48:48;99582.47;;;-6.17;53.21
33496;BME280;19836;55.812;37.560;2023-02-23T19:51:23;99585.16;;;-6.14;53.17
33496;BME280;19836;55.812;37.560;2023-02-23T19:54:29;99576.78;;;-6.04;53.51
33496;BME280;19836;55.812;37.560;2023-02-23T19:56:59;99577.75;;;-6.02;53.37
33496;BME280;19836;55.812;37.560;2023-02-23T19:59:25;99568.13;;;-6.03;53.17
33496;BME280;19836;55.812;37.560;2023-02-23T20:01:53;99569.03;;;-6.02;53.36
33496;BME280;19836;55.812;37.560;2023-02-23T20:04:20;99569.16;;;-5.98;53.50
33496;BME280;19836;55.812;37.560;2023-02-23T20:06:46;99572.31;;;-6.08;53.41
33496;BME280;19836;55.812;37.560;2023-02-23T20:09:13;99563.56;;;-6.10;53.29
33496;BME280;19836;55.812;37.560;2023-02-23T20:14:28;99554.06;;;-6.08;53.66
33496;BME280;19836;55.812;37.560;2023-02-23T20:16:54;99555.59;;;-6.14;53.80
33496;BME280;19836;55.812;37.560;2023-02-23T20:19:20;99542.59;;;-6.13;53.84
33496;BME280;19836;55.812;37.560;2023-02-23T20:21:47;99539.19;;;-6.12;53.54
33496;BME280;19836;55.812;37.560;2023-02-23T20:24:14;99542.59;;;-6.13;53.74
33496;BME280;19836;55.812;37.560;2023-02-23T20:26:44;99542.59;;;-6.13;53.69
33496;BME280;19836;55.812;37.560;2023-02-23T20:29:13;99531.50;;;-6.07;53.48
33496;BME280;19836;55.812;37.560;2023-02-23T20:31:46;99530.75;;;-6.03;53.82
33496;BME280;19836;55.812;37.560;2023-02-23T20:34:18;99539.50;;;-6.01;53.44
33496;BME280;19836;55.812;37.560;2023-02-23T20:36:45;99540.47;;;-5.98;53.30
33496;BME280;19836;55.812;37.560;2023-02-23T20:39:14;99532.69;;;-5.96;53.69
33496;BME280;19836;55.812;37.560;2023-02-23T20:41:43;99532.88;;;-5.92;53.15
33496;BME280;19836;55.812;37.560;2023-02-23T20:44:14;99543.38;;;-5.89;53.83
33496;BME280;19836;55.812;37.560;2023-02-23T20:46:40;99543.47;;;-5.86;53.56
33496;BME280;19836;55.812;37.560;2023-02-23T20:49:09;99532.88;;;-5.90;53.59
33496;BME280;19836;55.812;37.560;2023-02-23T20:51:37;99530.09;;;-5.96;53.42
33496;BME280;19836;55.812;37.560;2023-02-23T20:54:04;99530.19;;;-5.93;53.49
33496;BME280;19836;55.812;37.560;2023-02-23T20:56:30;99531.00;;;-5.96;53.69
33496;BME280;19836;55.812;37.560;2023-02-23T20:58:58;99536.03;;;-6.02;53.97
33496;BME280;19836;55.812;37.560;2023-02-23T21:01:24;99529.56;;;-6.13;54.05
33496;BME280;19836;55.812;37.560;2023-02-23T21:03:53;99523.31;;;-6.18;54.06
33496;BME280;19836;55.812;37.560;2023-02-23T21:06:22;99524.22;;;-6.17;53.69
33496;BME280;19836;55.812;37.560;2023-02-23T21:08:49;99527.56;;;-6.21;53.88
33496;BME280;19836;55.812;37.560;2023-02-23T21:11:24;99525.13;;;-6.17;54.17
33496;BME280;19836;55.812;37.560;2023-02-23T21:13:50;99524.41;;;-6.11;53.70
33496;BME280;19836;55.812;37.560;2023-02-23T21:16:21;99521.72;;;-6.14;54.08
33496;BME280;19836;55.812;37.560;2023-02-23T21:18:52;99519.69;;;-6.23;53.72
33496;BME280;19836;55.812;37.560;2023-02-23T21:21:46;99515.25;;;-6.27;54.51
33496;BME280;19836;55.812;37.560;2023-02-23T21:24:18;99513.19;;;-6.35;54.68
33496;BME280;19836;55.812;37.560;2023-02-23T21:26:46;99517.69;;;-6.31;54.82
33496;BME280;19836;55.812;37.560;2023-02-23T21:29:35;99503.06;;;-6.26;54.36
33496;BME280;19836;55.812;37.560;2023-02-23T21:32:33;99503.03;;;-6.28;54.77
33496;BME280;19836;55.812;37.560;2023-02-23T21:35:08;99496.09;;;-6.27;54.54
33496;BME280;19836;55.812;37.560;2023-02-23T21:37:37;99486.66;;;-6.24;54.76
33496;BME280;19836;55.812;37.560;2023-02-23T21:40:06;99485.00;;;-6.22;54.45
33496;BME280;19836;55.812;37.560;2023-02-23T21:42:41;99482.38;;;-6.22;55.07
33496;BME280;19836;55.812;37.560;2023-02-23T21:45:18;99486.03;;;-6.15;54.89
33496;BME280;19836;55.812;37.560;2023-02-23T21:48:12;99479.34;;;-6.07;54.66
33496;BME280;19836;55.812;37.560;2023-02-23T21:50:38;99487.22;;;-6.06;54.22
33496;BME280;19836;55.812;37.560;2023-02-23T21:53:05;99489.00;;;-6.05;54.57
33496;BME280;19836;55.812;37.560;2023-02-23T21:55:44;99484.50;;;-6.09;54.14
33496;BME280;19836;55.812;37.560;2023-02-23T21:58:46;99494.19;;;-6.05;54.79
33496;BME280;19836;55.812;37.560;2023-02-23T22:01:25;99485.53;;;-6.04;54.53
33496;BME280;19836;55.812;37.560;2023-02-23T22:03:56;99475.97;;;-6.05;54.67
33496;BME280;19836;55.812;37.560;2023-02-23T22:06:25;99476.69;;;-6.09;54.20
33496;BME280;19836;55.812;37.560;2023-02-23T22:08:52;99478.38;;;-6.11;54.28
33496;BME280;19836;55.812;37.560;2023-02-23T22:11:21;99468.81;;;-6.12;54.56
33496;BME280;19836;55.812;37.560;2023-02-23T22:13:54;99465.56;;;-6.03;54.60
33496;BME280;19836;55.812;37.560;2023-02-23T22:16:26;99457.81;;;-6.02;54.56
33496;BME280;19836;55.812;37.560;2023-02-23T22:18:52;99450.81;;;-6.03;54.60
33496;BME280;19836;55.812;37.560;2023-02-23T22:21:22;99450.84;;;-6.01;54.51
33496;BME280;19836;55.812;37.560;2023-02-23T22:23:48;99442.97;;;-6.04;54.48
33496;BME280;19836;55.812;37.560;2023-02-23T22:26:15;99443.66;;;-6.10;54.57
33496;BME280;19836;55.812;37.560;2023-02-23T22:28:42;99442.63;;;-6.15;54.60
33496;BME280;19836;55.812;37.560;2023-02-23T22:31:15;99448.88;;;-6.10;54.69
33496;BME280;19836;55.812;37.560;2023-02-23T22:33:45;99441.88;;;-6.11;54.60
33496;BME280;19836;55.812;37.560;2023-02-23T22:36:12;99433.97;;;-6.14;54.71
33496;BME280;19836;55.812;37.560;2023-02-23T22:38:40;99434.81;;;-6.15;54.69
33496;BME280;19836;55.812;37.560;2023-02-23T22:41:07;99437.31;;;-6.18;54.53
33496;BME280;19836;55.812;37.560;2023-02-23T22:43:37;99437.41;;;-6.15;54.49
33496;BME280;19836;55.812;37.560;2023-02-23T22:46:04;99446.31;;;-6.08;54.73
33496;BME280;19836;55.812;37.560;2023-02-23T22:48:33;99432.53;;;-6.04;54.95
33496;BME280;19836;55.812;37.560;2023-02-23T22:51:00;99429.94;;;-6.03;54.37
33496;BME280;19836;55.812;37.560;2023-02-23T22:53:26;99417.81;;;-6.02;54.63
33496;BME280;19836;55.812;37.560;2023-02-23T22:55:54;99413.44;;;-6.03;54.79
33496;BME280;19836;55.812;37.560;2023-02-23T22:58:22;99417.06;;;-5.98;54.67
33496;BME280;19836;55.812;37.560;2023-02-23T23:00:49;99407.59;;;-5.95;54.61
33496;BME280;19836;55.812;37.560;2023-02-23T23:03:41;99405.88;;;-5.94;54.76
33496;BME280;19836;55.812;37.560;2023-02-23T23:06:12;99408.56;;;-5.91;54.30
33496;BME280;19836;55.812;37.560;2023-02-23T23:08:43;99400.53;;;-5.99;54.73
33496;BME280;19836;55.812;37.560;2023-02-23T23:11:15;99393.44;;;-6.03;54.16
33496;BME280;19836;55.812;37.560;2023-02-23T23:13:45;99393.44;;;-6.03;54.82
33496;BME280;19836;55.812;37.560;2023-02-23T23:16:17;99388.22;;;-6.03;54.92
33496;BME280;19836;55.812;37.560;2023-02-23T23:18:49;99391.00;;;-5.98;55.00
33496;BME280;19836;55.812;37.560;2023-02-23T23:21:17;99380.50;;;-6.00;55.16
33496;BME280;19836;55.812;37.560;2023-02-23T23:23:49;99380.69;;;-5.94;54.62
33496;BME280;19836;55.812;37.560;2023-02-23T23:26:18;99376.63;;;-5.83;54.96
33496;BME280;19836;55.812;37.560;2023-02-23T23:28:50;99366.16;;;-5.86;54.51
33496;BME280;19836;55.812;37.560;2023-02-23T23:31:19;99371.38;;;-5.86;54.65
33496;BME280;19836;55.812;37.560;2023-02-23T23:34:00;99365.41;;;-5.82;54.45
33496;BME280;19836;55.812;37.560;2023-02-23T23:36:33;99359.34;;;-5.81;54.33
33496;BME280;19836;55.812;37.560;2023-02-23T23:39:00;99348.81;;;-5.84;54.26
33496;BME280;19836;55.812;37.560;2023-02-23T23:41:29;99340.13;;;-5.83;54.59
33496;BME280;19836;55.812;37.560;2023-02-23T23:44:00;99339.16;;;-5.86;54.00
33496;BME280;19836;55.812;37.560;2023-02-23T23:46:34;99338.31;;;-5.87;53.83
33496;BME280;19836;55.812;37.560;2023-02-23T23:49:06;99345.28;;;-5.86;54.22
33496;BME280;19836;55.812;37.560;2023-02-23T23:51:41;99346.13;;;-5.87;54.59
33496;BME280;19836;55.812;37.560;2023-02-23T23:54:13;99339.22;;;-5.85;54.19
33496;BME280;19836;55.812;37.560;2023-02-23T23:56:40;99345.66;;;-5.71;54.17
33496;BME280;19836;55.812;37.560;2023-02-23T23:59:11;99333.53;;;-5.69;53.86
